sensor_id;sensor_type;location;lat;lon;timestamp;pressure;altitude;pressure_sealevel;temperature;humidity
65394;BME280;52002;49.760;6.512;2023-04-30T00:00:11;100489.41;;;11.28;71.37
65394;BME280;52002;49.760;6.512;2023-04-30T00:02:36;100491.33;;;11.29;71.54
65394;BME280;52002;49.760;6.512;2023-04-30T00:05:02;100487.56;;;11.29;71.45
65394;BME280;52002;49.760;6.512;2023-04-30T00:07:28;100486.84;;;11.29;71.26
65394;BME280;52002;49.760;6.512;2023-04-30T00:09:54;100487.05;;;11.29;71.44
65394;BME280;52002;49.760;6.512;2023-04-30T00:12:19;100488.27;;;11.27;71.39
65394;BME280;52002;49.760;6.512;2023-04-30T00:14:45;100488.23;;;11.23;71.55
65394;BME280;52002;49.760;6.512;2023-04-30T00:17:10;100489.21;;;11.22;71.51
65394;BME280;52002;49.760;6.512;2023-04-30T00:19:36;100486.49;;;11.21;71.44
65394;BME280;52002;49.760;6.512;2023-04-30T00:22:01;100489.70;;;11.21;71.49
65394;BME280;52002;49.760;6.512;2023-04-30T00:24:28;100490.50;;;11.22;71.51
65394;BME280;52002;49.760;6.512;2023-04-30T00:26:53;100491.66;;;11.23;71.20
65394;BME280;52002;49.760;6.512;2023-04-30T00:29:20;100489.97;;;11.24;71.52
65394;BME280;52002;49.760;6.512;2023-04-30T00:31:45;100490.13;;;11.26;71.21
65394;BME280;52002;49.760;6.512;2023-04-30T00:34:10;100491.16;;;11.27;71.34
65394;BME280;52002;49.760;6.512;2023-04-30T00:36:36;100488.72;;;11.24;71.10
65394;BME280;52002;49.760;6.512;2023-04-30T00:39:01;100489.19;;;11.22;71.19
65394;BME280;52002;49.760;6.512;2023-04-30T00:41:28;100490.55;;;11.21;71.30
65394;BME280;52002;49.760;6.512;2023-04-30T00:43:54;100491.84;;;11.21;71.23
65394;BME280;52002;49.760;6.512;2023-04-30T00:46:19;100490.14;;;11.20;71.05
65394;BME280;52002;49.760;6.512;2023-04-30T00:48:45;100490.92;;;11.19;71.06
65394;BME280;52002;49.760;6.512;2023-04-30T00:51:11;100485.45;;;11.20;71.19
65394;BME280;52002;49.760;6.512;2023-04-30T00:53:37;100484.58;;;11.20;70.99
65394;BME280;52002;49.760;6.512;2023-04-30T00:56:05;100488.69;;;11.20;71.05
65394;BME280;52002;49.760;6.512;2023-04-30T00:58:33;100480.55;;;11.22;71.17
65394;BME280;52002;49.760;6.512;2023-04-30T01:01:00;100473.64;;;11.21;71.29
65394;BME280;52002;49.760;6.512;2023-04-30T01:03:27;100479.06;;;11.20;71.21
65394;BME280;52002;49.760;6.512;2023-04-30T01:05:52;100481.16;;;11.18;71.20
65394;BME280;52002;49.760;6.512;2023-04-30T01:08:18;100477.58;;;11.17;71.32
65394;BME280;52002;49.760;6.512;2023-04-30T01:10:54;100476.14;;;11.17;71.42
65394;BME280;52002;49.760;6.512;2023-04-30T01:13:27;100476.45;;;11.17;71.33
65394;BME280;52002;49.760;6.512;2023-04-30T01:21:50;100484.13;;;11.17;71.25
65394;BME280;52002;49.760;6.512;2023-04-30T01:24:53;100487.30;;;11.15;71.20
65394;BME280;52002;49.760;6.512;2023-04-30T01:30:20;100483.38;;;11.11;71.15
65394;BME280;52002;49.760;6.512;2023-04-30T01:32:46;100481.16;;;11.10;71.29
65394;BME280;52002;49.760;6.512;2023-04-30T01:35:12;100483.56;;;11.09;71.24
65394;BME280;52002;49.760;6.512;2023-04-30T01:37:46;100482.52;;;11.08;71.30
65394;BME280;52002;49.760;6.512;2023-04-30T01:40:28;100483.30;;;11.07;71.12
65394;BME280;52002;49.760;6.512;2023-04-30T01:43:25;100481.01;;;11.07;70.92
65394;BME280;52002;49.760;6.512;2023-04-30T01:46:33;100481.69;;;11.08;70.93
65394;BME280;52002;49.760;6.512;2023-04-30T01:49:18;100483.73;;;11.07;70.88
65394;BME280;52002;49.760;6.512;2023-04-30T01:51:54;100484.02;;;11.05;70.95
65394;BME280;52002;49.760;6.512;2023-04-30T01:54:44;100481.75;;;11.02;71.16
65394;BME280;52002;49.760;6.512;2023-04-30T01:57:17;100489.25;;;11.00;71.02
65394;BME280;52002;49.760;6.512;2023-04-30T01:59:45;100484.37;;;10.97;71.27
65394;BME280;52002;49.760;6.512;2023-04-30T02:02:11;100482.08;;;10.96;71.33
65394;BME280;52002;49.760;6.512;2023-04-30T02:04:36;100481.05;;;10.98;71.43
65394;BME280;52002;49.760;6.512;2023-04-30T02:07:01;100481.10;;;10.97;71.31
65394;BME280;52002;49.760;6.512;2023-04-30T02:09:27;100476.66;;;10.97;71.38
65394;BME280;52002;49.760;6.512;2023-04-30T02:11:52;100480.93;;;10.95;71.63
65394;BME280;52002;49.760;6.512;2023-04-30T02:14:18;100482.98;;;10.94;71.56
65394;BME280;52002;49.760;6.512;2023-04-30T02:16:43;100485.16;;;10.91;71.37
65394;BME280;52002;49.760;6.512;2023-04-30T02:19:09;100486.98;;;10.89;71.46
65394;BME280;52002;49.760;6.512;2023-04-30T02:21:35;100484.50;;;10.86;71.52
65394;BME280;52002;49.760;6.512;2023-04-30T02:24:00;100483.02;;;10.85;71.68
65394;BME280;52002;49.760;6.512;2023-04-30T02:26:25;100477.86;;;10.85;71.68
65394;BME280;52002;49.760;6.512;2023-04-30T02:28:51;100479.67;;;10.85;71.83
65394;BME280;52002;49.760;6.512;2023-04-30T02:31:16;100485.94;;;10.86;71.95
65394;BME280;52002;49.760;6.512;2023-04-30T02:33:42;100483.92;;;10.85;71.74
65394;BME280;52002;49.760;6.512;2023-04-30T02:36:07;100481.54;;;10.86;71.81
65394;BME280;52002;49.760;6.512;2023-04-30T02:38:32;100479.31;;;10.85;71.92
65394;BME280;52002;49.760;6.512;2023-04-30T02:40:58;100481.02;;;10.83;71.99
65394;BME280;52002;49.760;6.512;2023-04-30T02:43:23;100478.88;;;10.81;72.05
65394;BME280;52002;49.760;6.512;2023-04-30T02:45:48;100483.77;;;10.80;72.23
65394;BME280;52002;49.760;6.512;2023-04-30T02:48:14;100475.80;;;10.80;71.97
65394;BME280;52002;49.760;6.512;2023-04-30T02:50:39;100473.59;;;10.81;71.81
65394;BME280;52002;49.760;6.512;2023-04-30T02:53:05;100473.98;;;10.83;71.93
65394;BME280;52002;49.760;6.512;2023-04-30T02:55:30;100471.93;;;10.84;71.80
65394;BME280;52002;49.760;6.512;2023-04-30T02:57:57;100471.42;;;10.83;71.82
65394;BME280;52002;49.760;6.512;2023-04-30T03:00:22;100470.88;;;10.83;71.86
65394;BME280;52002;49.760;6.512;2023-04-30T03:02:47;100465.74;;;10.83;71.83
65394;BME280;52002;49.760;6.512;2023-04-30T03:05:13;100463.46;;;10.83;71.98
65394;BME280;52002;49.760;6.512;2023-04-30T03:07:40;100463.37;;;10.82;71.91
65394;BME280;52002;49.760;6.512;2023-04-30T03:10:06;100461.80;;;10.79;71.84
65394;BME280;52002;49.760;6.512;2023-04-30T03:12:31;100459.39;;;10.77;72.06
65394;BME280;52002;49.760;6.512;2023-04-30T03:14:57;100462.53;;;10.76;71.77
65394;BME280;52002;49.760;6.512;2023-04-30T03:17:22;100463.18;;;10.75;71.99
65394;BME280;52002;49.760;6.512;2023-04-30T03:19:49;100459.19;;;10.74;71.86
65394;BME280;52002;49.760;6.512;2023-04-30T03:22:15;100463.17;;;10.73;71.90
65394;BME280;52002;49.760;6.512;2023-04-30T03:24:40;100466.59;;;10.72;72.02
65394;BME280;52002;49.760;6.512;2023-04-30T03:27:06;100463.02;;;10.73;72.12
65394;BME280;52002;49.760;6.512;2023-04-30T03:29:31;100463.70;;;10.73;72.14
65394;BME280;52002;49.760;6.512;2023-04-30T03:31:56;100468.51;;;10.71;72.32
65394;BME280;52002;49.760;6.512;2023-04-30T03:34:22;100464.33;;;10.69;71.98
65394;BME280;52002;49.760;6.512;2023-04-30T03:36:47;100466.55;;;10.69;71.98
65394;BME280;52002;49.760;6.512;2023-04-30T03:39:14;100461.97;;;10.66;72.24
65394;BME280;52002;49.760;6.512;2023-04-30T03:41:40;100463.86;;;10.65;72.21
65394;BME280;52002;49.760;6.512;2023-04-30T03:44:05;100462.96;;;10.64;72.20
65394;BME280;52002;49.760;6.512;2023-04-30T03:46:31;100465.66;;;10.66;72.10
65394;BME280;52002;49.760;6.512;2023-04-30T03:48:56;100464.39;;;10.67;72.30
65394;BME280;52002;49.760;6.512;2023-04-30T03:51:21;100463.71;;;10.66;72.12
65394;BME280;52002;49.760;6.512;2023-04-30T03:53:47;100463.35;;;10.64;72.29
65394;BME280;52002;49.760;6.512;2023-04-30T03:56:12;100463.49;;;10.62;72.21
65394;BME280;52002;49.760;6.512;2023-04-30T03:58:38;100458.70;;;10.58;72.41
65394;BME280;52002;49.760;6.512;2023-04-30T04:01:04;100457.52;;;10.55;72.46
65394;BME280;52002;49.760;6.512;2023-04-30T04:03:29;100461.83;;;10.54;72.65
65394;BME280;52002;49.760;6.512;2023-04-30T04:05:56;100458.41;;;10.55;72.53
65394;BME280;52002;49.760;6.512;2023-04-30T04:08:21;100462.31;;;10.57;72.64
65394;BME280;52002;49.760;6.512;2023-04-30T04:10:47;100462.59;;;10.58;72.46
65394;BME280;52002;49.760;6.512;2023-04-30T04:13:12;100463.36;;;10.58;72.62
65394;BME280;52002;49.760;6.512;2023-04-30T04:15:37;100466.02;;;10.58;72.29
65394;BME280;52002;49.760;6.512;2023-04-30T04:18:03;100465.83;;;10.56;72.30
65394;BME280;52002;49.760;6.512;2023-04-30T04:20:28;100460.71;;;10.55;72.55
65394;BME280;52002;49.760;6.512;2023-04-30T04:22:54;100466.22;;;10.53;72.52
65394;BME280;52002;49.760;6.512;2023-04-30T04:25:20;100467.27;;;10.51;72.52
65394;BME280;52002;49.760;6.512;2023-04-30T04:27:50;100465.00;;;10.51;72.41
65394;BME280;52002;49.760;6.512;2023-04-30T04:30:16;100465.20;;;10.53;72.43
65394;BME280;52002;49.760;6.512;2023-04-30T04:32:42;100465.88;;;10.53;72.48
65394;BME280;52002;49.760;6.512;2023-04-30T04:35:15;100466.02;;;10.55;72.70
65394;BME280;52002;49.760;6.512;2023-04-30T04:37:40;100468.69;;;10.58;72.28
65394;BME280;52002;49.760;6.512;2023-04-30T04:40:07;100467.85;;;10.61;72.45
65394;BME280;52002;49.760;6.512;2023-04-30T04:42:33;100470.94;;;10.65;72.28
65394;BME280;52002;49.760;6.512;2023-04-30T04:44:58;100471.30;;;10.67;72.21
65394;BME280;52002;49.760;6.512;2023-04-30T04:47:23;100468.63;;;10.69;72.33
65394;BME280;52002;49.760;6.512;2023-04-30T04:49:48;100463.48;;;10.69;72.16
65394;BME280;52002;49.760;6.512;2023-04-30T04:52:14;100470.83;;;10.71;72.22
65394;BME280;52002;49.760;6.512;2023-04-30T04:54:39;100476.19;;;10.73;72.44
65394;BME280;52002;49.760;6.512;2023-04-30T04:57:05;100476.56;;;10.76;72.18
65394;BME280;52002;49.760;6.512;2023-04-30T04:59:30;100478.08;;;10.82;72.09
65394;BME280;52002;49.760;6.512;2023-04-30T05:01:56;100478.99;;;10.87;71.98
65394;BME280;52002;49.760;6.512;2023-04-30T05:04:21;100482.29;;;10.90;71.81
65394;BME280;52002;49.760;6.512;2023-04-30T05:06:46;100485.61;;;10.93;71.83
65394;BME280;52002;49.760;6.512;2023-04-30T05:09:12;100487.05;;;10.96;71.37
65394;BME280;52002;49.760;6.512;2023-04-30T05:11:38;100487.00;;;10.99;71.42
65394;BME280;52002;49.760;6.512;2023-04-30T05:14:05;100490.63;;;11.03;71.31
65394;BME280;52002;49.760;6.512;2023-04-30T05:16:31;100488.24;;;11.06;71.38
65394;BME280;52002;49.760;6.512;2023-04-30T05:18:56;100489.66;;;11.13;71.17
65394;BME280;52002;49.760;6.512;2023-04-30T05:21:22;100489.86;;;11.19;70.95
65394;BME280;52002;49.760;6.512;2023-04-30T05:23:47;100493.22;;;11.27;70.51
65394;BME280;52002;49.760;6.512;2023-04-30T05:26:12;100488.26;;;11.35;70.59
65394;BME280;52002;49.760;6.512;2023-04-30T05:28:38;100487.78;;;11.44;70.71
65394;BME280;52002;49.760;6.512;2023-04-30T05:31:03;100485.88;;;11.49;70.27
65394;BME280;52002;49.760;6.512;2023-04-30T05:33:29;100483.59;;;11.55;70.02
65394;BME280;52002;49.760;6.512;2023-04-30T05:35:54;100487.79;;;11.62;69.84
65394;BME280;52002;49.760;6.512;2023-04-30T05:38:19;100489.70;;;11.67;69.64
65394;BME280;52002;49.760;6.512;2023-04-30T05:40:45;100488.18;;;11.73;69.87
65394;BME280;52002;49.760;6.512;2023-04-30T05:43:10;100490.16;;;11.79;69.47
65394;BME280;52002;49.760;6.512;2023-04-30T05:45:36;100488.52;;;11.83;69.31
65394;BME280;52002;49.760;6.512;2023-04-30T05:48:01;100484.41;;;11.89;69.41
65394;BME280;52002;49.760;6.512;2023-04-30T05:50:27;100481.89;;;12.00;68.89
65394;BME280;52002;49.760;6.512;2023-04-30T05:52:52;100485.55;;;12.12;68.59
65394;BME280;52002;49.760;6.512;2023-04-30T05:55:17;100482.55;;;12.23;68.16
65394;BME280;52002;49.760;6.512;2023-04-30T05:57:43;100481.00;;;12.41;67.98
65394;BME280;52002;49.760;6.512;2023-04-30T06:00:09;100480.62;;;12.60;67.43
65394;BME280;52002;49.760;6.512;2023-04-30T06:02:34;100476.15;;;12.78;66.67
65394;BME280;52002;49.760;6.512;2023-04-30T06:05:00;100475.80;;;12.97;66.20
65394;BME280;52002;49.760;6.512;2023-04-30T06:07:27;100475.21;;;13.12;65.58
65394;BME280;52002;49.760;6.512;2023-04-30T06:09:52;100473.80;;;13.33;65.39
65394;BME280;52002;49.760;6.512;2023-04-30T06:12:17;100470.58;;;13.81;64.57
65394;BME280;52002;49.760;6.512;2023-04-30T06:14:43;100469.19;;;14.35;63.34
65394;BME280;52002;49.760;6.512;2023-04-30T06:17:13;100468.08;;;15.83;61.44
65394;BME280;52002;49.760;6.512;2023-04-30T06:19:40;100467.41;;;17.90;58.08
65394;BME280;52002;49.760;6.512;2023-04-30T06:22:05;100463.25;;;20.06;54.92
65394;BME280;52002;49.760;6.512;2023-04-30T06:24:30;100462.80;;;21.93;51.31
65394;BME280;52002;49.760;6.512;2023-04-30T06:26:56;100462.21;;;23.78;48.63
65394;BME280;52002;49.760;6.512;2023-04-30T06:29:21;100468.33;;;26.23;44.99
65394;BME280;52002;49.760;6.512;2023-04-30T06:31:49;100459.95;;;28.24;41.61
65394;BME280;52002;49.760;6.512;2023-04-30T06:34:15;100463.43;;;29.85;39.08
65394;BME280;52002;49.760;6.512;2023-04-30T06:36:41;100461.30;;;31.51;36.71
65394;BME280;52002;49.760;6.512;2023-04-30T06:39:06;100459.77;;;33.00;34.03
65394;BME280;52002;49.760;6.512;2023-04-30T06:41:32;100458.30;;;34.38;32.36
65394;BME280;52002;49.760;6.512;2023-04-30T06:44:03;100455.88;;;35.48;29.98
65394;BME280;52002;49.760;6.512;2023-04-30T06:50:04;100456.75;;;37.54;26.77
65394;BME280;52002;49.760;6.512;2023-04-30T07:16:52;100446.02;;;41.46;19.26
65394;BME280;52002;49.760;6.512;2023-04-30T07:23:03;100439.60;;;37.22;20.80
65394;BME280;52002;49.760;6.512;2023-04-30T07:25:33;100437.14;;;36.09;21.63
65394;BME280;52002;49.760;6.512;2023-04-30T07:27:59;100432.41;;;35.48;21.99
65394;BME280;52002;49.760;6.512;2023-04-30T07:30:24;100442.20;;;34.71;22.34
65394;BME280;52002;49.760;6.512;2023-04-30T07:32:50;100437.10;;;33.60;22.94
65394;BME280;52002;49.760;6.512;2023-04-30T07:35:16;100435.05;;;32.44;23.90
65394;BME280;52002;49.760;6.512;2023-04-30T07:37:45;100428.84;;;32.23;24.31
65394;BME280;52002;49.760;6.512;2023-04-30T07:40:13;100432.86;;;31.90;24.38
65394;BME280;52002;49.760;6.512;2023-04-30T07:42:40;100432.43;;;32.34;24.43
65394;BME280;52002;49.760;6.512;2023-04-30T07:45:09;100432.61;;;32.07;25.07
65394;BME280;52002;49.760;6.512;2023-04-30T07:47:35;100432.59;;;32.35;24.57
65394;BME280;52002;49.760;6.512;2023-04-30T07:50:01;100430.25;;;33.50;23.73
65394;BME280;52002;49.760;6.512;2023-04-30T07:52:32;100428.52;;;34.97;22.75
65394;BME280;52002;49.760;6.512;2023-04-30T07:55:00;100433.13;;;36.15;22.17
65394;BME280;52002;49.760;6.512;2023-04-30T07:57:31;100431.72;;;37.39;21.31
65394;BME280;52002;49.760;6.512;2023-04-30T08:00:17;100435.02;;;38.58;20.13
65394;BME280;52002;49.760;6.512;2023-04-30T08:02:48;100440.48;;;38.69;19.35
65394;BME280;52002;49.760;6.512;2023-04-30T08:08:37;100446.59;;;39.31;19.08
65394;BME280;52002;49.760;6.512;2023-04-30T08:11:46;100439.38;;;39.85;18.26
65394;BME280;52002;49.760;6.512;2023-04-30T08:14:17;100438.84;;;39.69;17.89
65394;BME280;52002;49.760;6.512;2023-04-30T08:16:45;100437.89;;;37.44;19.01
65394;BME280;52002;49.760;6.512;2023-04-30T08:19:10;100431.17;;;35.12;19.88
65394;BME280;52002;49.760;6.512;2023-04-30T08:21:36;100435.24;;;34.69;20.25
65394;BME280;52002;49.760;6.512;2023-04-30T08:24:02;100444.96;;;34.74;20.19
65394;BME280;52002;49.760;6.512;2023-04-30T08:26:27;100442.47;;;34.11;20.17
65394;BME280;52002;49.760;6.512;2023-04-30T08:28:53;100430.03;;;31.51;21.70
65394;BME280;52002;49.760;6.512;2023-04-30T08:31:19;100428.02;;;29.15;23.12
65394;BME280;52002;49.760;6.512;2023-04-30T08:33:44;100424.08;;;27.13;25.27
65394;BME280;52002;49.760;6.512;2023-04-30T08:36:10;100425.18;;;26.08;26.76
65394;BME280;52002;49.760;6.512;2023-04-30T08:38:35;100424.42;;;25.04;28.07
65394;BME280;52002;49.760;6.512;2023-04-30T08:41:12;100424.54;;;24.10;29.46
65394;BME280;52002;49.760;6.512;2023-04-30T08:43:38;100424.79;;;23.24;30.44
65394;BME280;52002;49.760;6.512;2023-04-30T08:46:04;100425.83;;;22.52;31.07
65394;BME280;52002;49.760;6.512;2023-04-30T08:48:30;100425.13;;;21.91;31.61
65394;BME280;52002;49.760;6.512;2023-04-30T08:51:03;100423.48;;;21.62;32.20
65394;BME280;52002;49.760;6.512;2023-04-30T08:53:30;100430.70;;;21.26;32.61
65394;BME280;52002;49.760;6.512;2023-04-30T08:55:58;100431.36;;;21.14;33.10
65394;BME280;52002;49.760;6.512;2023-04-30T08:58:24;100430.17;;;21.22;33.28
65394;BME280;52002;49.760;6.512;2023-04-30T09:00:49;100429.39;;;21.20;33.30
65394;BME280;52002;49.760;6.512;2023-04-30T09:03:14;100427.30;;;21.19;34.00
65394;BME280;52002;49.760;6.512;2023-04-30T09:05:40;100423.54;;;21.13;34.11
65394;BME280;52002;49.760;6.512;2023-04-30T09:08:07;100421.48;;;21.02;34.28
65394;BME280;52002;49.760;6.512;2023-04-30T09:10:35;100415.29;;;21.01;34.26
65394;BME280;52002;49.760;6.512;2023-04-30T09:13:06;100421.36;;;20.93;34.36
65394;BME280;52002;49.760;6.512;2023-04-30T09:15:33;100415.61;;;20.81;34.78
65394;BME280;52002;49.760;6.512;2023-04-30T09:18:13;100415.27;;;20.72;34.33
65394;BME280;52002;49.760;6.512;2023-04-30T09:20:57;100420.22;;;20.60;34.62
65394;BME280;52002;49.760;6.512;2023-04-30T09:23:26;100413.61;;;20.39;34.31
65394;BME280;52002;49.760;6.512;2023-04-30T09:25:51;100420.64;;;20.19;34.34
65394;BME280;52002;49.760;6.512;2023-04-30T09:28:18;100415.79;;;20.18;34.20
65394;BME280;52002;49.760;6.512;2023-04-30T09:30:48;100418.38;;;20.22;33.98
65394;BME280;52002;49.760;6.512;2023-04-30T09:33:13;100418.49;;;20.18;33.96
65394;BME280;52002;49.760;6.512;2023-04-30T09:35:39;100417.02;;;20.20;34.59
65394;BME280;52002;49.760;6.512;2023-04-30T09:38:06;100414.39;;;20.24;34.10
65394;BME280;52002;49.760;6.512;2023-04-30T09:40:36;100419.13;;;20.11;33.71
65394;BME280;52002;49.760;6.512;2023-04-30T09:43:03;100421.08;;;19.80;33.88
65394;BME280;52002;49.760;6.512;2023-04-30T09:45:39;100414.75;;;19.52;33.82
65394;BME280;52002;49.760;6.512;2023-04-30T09:48:07;100415.10;;;19.34;34.46
65394;BME280;52002;49.760;6.512;2023-04-30T09:50:37;100408.44;;;19.37;34.82
65394;BME280;52002;49.760;6.512;2023-04-30T09:53:08;100409.45;;;19.45;34.88
65394;BME280;52002;49.760;6.512;2023-04-30T09:55:35;100403.23;;;19.39;34.67
65394;BME280;52002;49.760;6.512;2023-04-30T09:58:05;100400.69;;;19.33;34.93
65394;BME280;52002;49.760;6.512;2023-04-30T10:00:35;100405.66;;;19.23;34.76
65394;BME280;52002;49.760;6.512;2023-04-30T10:03:05;100405.04;;;19.16;34.90
65394;BME280;52002;49.760;6.512;2023-04-30T10:05:35;100391.80;;;19.11;35.02
65394;BME280;52002;49.760;6.512;2023-04-30T10:08:03;100397.11;;;19.09;34.90
65394;BME280;52002;49.760;6.512;2023-04-30T10:10:30;100393.67;;;19.10;35.01
65394;BME280;52002;49.760;6.512;2023-04-30T10:13:02;100384.27;;;19.11;35.25
65394;BME280;52002;49.760;6.512;2023-04-30T10:15:37;100381.98;;;19.13;35.14
65394;BME280;52002;49.760;6.512;2023-04-30T10:18:07;100386.70;;;19.11;35.47
65394;BME280;52002;49.760;6.512;2023-04-30T10:20:37;100381.80;;;19.10;35.21
65394;BME280;52002;49.760;6.512;2023-04-30T10:23:03;100382.59;;;19.10;35.14
65394;BME280;52002;49.760;6.512;2023-04-30T10:25:31;100383.70;;;18.94;34.82
65394;BME280;52002;49.760;6.512;2023-04-30T10:27:57;100387.51;;;18.72;35.08
65394;BME280;52002;49.760;6.512;2023-04-30T10:30:22;100384.83;;;18.64;35.10
65394;BME280;52002;49.760;6.512;2023-04-30T10:35:49;100375.45;;;18.58;35.45
65394;BME280;52002;49.760;6.512;2023-04-30T10:38:22;100370.72;;;18.61;35.81
65394;BME280;52002;49.760;6.512;2023-04-30T10:40:50;100374.70;;;18.56;35.81
65394;BME280;52002;49.760;6.512;2023-04-30T10:43:19;100374.73;;;18.53;35.84
65394;BME280;52002;49.760;6.512;2023-04-30T10:45:47;100368.24;;;18.58;36.07
65394;BME280;52002;49.760;6.512;2023-04-30T10:48:14;100368.85;;;18.67;35.85
65394;BME280;52002;49.760;6.512;2023-04-30T10:50:41;100363.02;;;18.76;35.86
65394;BME280;52002;49.760;6.512;2023-04-30T10:53:12;100346.85;;;18.82;36.01
65394;BME280;52002;49.760;6.512;2023-04-30T10:55:46;100357.58;;;18.78;35.99
65394;BME280;52002;49.760;6.512;2023-04-30T10:58:41;100346.98;;;18.70;36.22
65394;BME280;52002;49.760;6.512;2023-04-30T11:01:11;100338.94;;;18.71;36.14
65394;BME280;52002;49.760;6.512;2023-04-30T11:03:40;100340.90;;;18.82;35.97
65394;BME280;52002;49.760;6.512;2023-04-30T11:06:11;100336.80;;;18.89;35.64
65394;BME280;52002;49.760;6.512;2023-04-30T11:08:41;100326.08;;;18.93;35.71
65394;BME280;52002;49.760;6.512;2023-04-30T11:11:07;100321.42;;;19.04;35.73
65394;BME280;52002;49.760;6.512;2023-04-30T11:13:41;100316.23;;;19.18;35.53
65394;BME280;52002;49.760;6.512;2023-04-30T11:16:08;100315.91;;;19.31;35.52
65394;BME280;52002;49.760;6.512;2023-04-30T11:18:40;100311.38;;;19.35;35.26
65394;BME280;52002;49.760;6.512;2023-04-30T11:21:07;100318.31;;;19.30;35.27
65394;BME280;52002;49.760;6.512;2023-04-30T11:23:33;100312.52;;;19.39;35.52
65394;BME280;52002;49.760;6.512;2023-04-30T11:25:59;100314.06;;;19.51;34.92
65394;BME280;52002;49.760;6.512;2023-04-30T11:28:26;100313.00;;;19.66;34.59
65394;BME280;52002;49.760;6.512;2023-04-30T11:33:19;100307.32;;;19.94;34.32
65394;BME280;52002;49.760;6.512;2023-04-30T11:35:45;100302.70;;;20.06;34.15
65394;BME280;52002;49.760;6.512;2023-04-30T11:38:14;100305.52;;;20.12;34.24
65394;BME280;52002;49.760;6.512;2023-04-30T11:40:40;100301.36;;;20.23;34.13
65394;BME280;52002;49.760;6.512;2023-04-30T11:43:07;100307.39;;;20.32;33.69
65394;BME280;52002;49.760;6.512;2023-04-30T11:45:32;100305.61;;;20.29;33.45
65394;BME280;52002;49.760;6.512;2023-04-30T11:47:58;100301.95;;;20.24;33.32
65394;BME280;52002;49.760;6.512;2023-04-30T11:50:26;100294.61;;;20.06;33.40
65394;BME280;52002;49.760;6.512;2023-04-30T11:52:54;100295.91;;;19.82;33.61
65394;BME280;52002;49.760;6.512;2023-04-30T11:55:22;100286.16;;;19.70;33.86
65394;BME280;52002;49.760;6.512;2023-04-30T11:57:50;100283.64;;;19.68;34.09
65394;BME280;52002;49.760;6.512;2023-04-30T12:00:19;100275.99;;;19.76;34.30
65394;BME280;52002;49.760;6.512;2023-04-30T12:02:46;100273.73;;;19.78;34.25
65394;BME280;52002;49.760;6.512;2023-04-30T12:05:14;100275.15;;;19.76;34.46
65394;BME280;52002;49.760;6.512;2023-04-30T12:07:50;100276.79;;;19.70;34.44
65394;BME280;52002;49.760;6.512;2023-04-30T12:10:18;100270.40;;;19.69;34.81
65394;BME280;52002;49.760;6.512;2023-04-30T12:12:45;100271.75;;;19.69;34.96
65394;BME280;52002;49.760;6.512;2023-04-30T12:15:13;100266.90;;;19.65;34.46
65394;BME280;52002;49.760;6.512;2023-04-30T12:17:39;100262.29;;;19.48;34.00
65394;BME280;52002;49.760;6.512;2023-04-30T12:20:06;100267.97;;;19.37;34.43
65394;BME280;52002;49.760;6.512;2023-04-30T12:22:33;100256.52;;;19.30;34.72
65394;BME280;52002;49.760;6.512;2023-04-30T12:24:59;100256.71;;;19.25;34.16
65394;BME280;52002;49.760;6.512;2023-04-30T12:27:25;100255.95;;;19.24;34.16
65394;BME280;52002;49.760;6.512;2023-04-30T12:29:51;100268.35;;;19.19;33.90
65394;BME280;52002;49.760;6.512;2023-04-30T12:32:20;100264.91;;;19.13;34.29
65394;BME280;52002;49.760;6.512;2023-04-30T12:34:46;100259.21;;;19.11;33.93
65394;BME280;52002;49.760;6.512;2023-04-30T12:37:14;100257.18;;;19.08;33.88
65394;BME280;52002;49.760;6.512;2023-04-30T12:39:40;100260.23;;;19.09;34.40
65394;BME280;52002;49.760;6.512;2023-04-30T12:42:06;100261.96;;;19.11;34.18
65394;BME280;52002;49.760;6.512;2023-04-30T12:44:41;100269.39;;;19.09;33.84
65394;BME280;52002;49.760;6.512;2023-04-30T12:47:07;100256.44;;;19.06;33.95
65394;BME280;52002;49.760;6.512;2023-04-30T12:49:34;100244.72;;;19.04;33.96
65394;BME280;52002;49.760;6.512;2023-04-30T12:52:10;100248.54;;;19.09;34.20
65394;BME280;52002;49.760;6.512;2023-04-30T12:54:37;100250.38;;;19.17;34.36
65394;BME280;52002;49.760;6.512;2023-04-30T12:57:10;100240.48;;;19.27;34.75
65394;BME280;52002;49.760;6.512;2023-04-30T12:59:55;100236.39;;;19.33;34.35
65394;BME280;52002;49.760;6.512;2023-04-30T13:02:23;100245.57;;;19.34;34.05
65394;BME280;52002;49.760;6.512;2023-04-30T13:04:51;100242.77;;;19.27;33.90
65394;BME280;52002;49.760;6.512;2023-04-30T13:07:16;100241.22;;;19.25;34.01
65394;BME280;52002;49.760;6.512;2023-04-30T13:09:42;100239.86;;;19.23;34.25
65394;BME280;52002;49.760;6.512;2023-04-30T13:12:07;100235.44;;;19.25;33.91
65394;BME280;52002;49.760;6.512;2023-04-30T13:14:33;100237.85;;;19.23;33.64
65394;BME280;52002;49.760;6.512;2023-04-30T13:16:59;100256.91;;;19.16;33.47
65394;BME280;52002;49.760;6.512;2023-04-30T13:19:25;100244.47;;;19.08;33.22
65394;BME280;52002;49.760;6.512;2023-04-30T13:21:51;100246.80;;;19.06;33.51
65394;BME280;52002;49.760;6.512;2023-04-30T13:24:16;100241.49;;;19.08;33.37
65394;BME280;52002;49.760;6.512;2023-04-30T13:26:43;100235.48;;;19.08;34.38
65394;BME280;52002;49.760;6.512;2023-04-30T13:29:08;100223.90;;;19.09;34.47
65394;BME280;52002;49.760;6.512;2023-04-30T13:31:34;100223.66;;;19.08;34.09
65394;BME280;52002;49.760;6.512;2023-04-30T13:34:00;100224.93;;;19.01;34.07
65394;BME280;52002;49.760;6.512;2023-04-30T13:36:25;100222.98;;;18.91;34.06
65394;BME280;52002;49.760;6.512;2023-04-30T13:38:51;100218.11;;;18.79;34.09
65394;BME280;52002;49.760;6.512;2023-04-30T13:41:17;100219.45;;;18.74;34.31